Time;durP1;ratioP1;P1;durP2;ratioP2;P2;SDS_P1;SDS_P2;PMS_P1;PMS_P2;Temp;Humidity;BMP_temperature;BMP_pressure;BME280_temperature;BME280_humidity;BME280_pressure;Samples;Min_cycle;Max_cycle;Signal;HPM_P1;HPM_P2
2021/11/21 00:01:04;;;;;;;2.08;0.70;;;16.30;71.10;;;;;;4816550;29;20065;-69
2021/11/21 00:03:31;;;;;;;3.20;1.10;;;16.20;71.20;;;;;;4814312;29;20047;-68
2021/11/21 00:05:57;;;;;;;2.60;0.73;;;16.30;71.10;;;;;;4817151;29;20130;-69
2021/11/21 00:08:22;;;;;;;2.40;0.80;;;16.30;71.20;;;;;;4802231;29;20062;-69
2021/11/21 00:10:49;;;;;;;1.98;0.85;;;16.20;71.10;;;;;;4816334;29;20130;-69
2021/11/21 00:13:15;;;;;;;1.73;0.93;;;16.20;71.00;;;;;;4817523;29;20042;-68
2021/11/21 00:15:41;;;;;;;1.95;0.70;;;16.20;71.10;;;;;;4817818;29;20442;-69
2021/11/21 00:18:09;;;;;;;2.40;1.10;;;16.20;71.20;;;;;;4800150;29;20121;-69
2021/11/21 00:20:35;;;;;;;3.10;0.88;;;16.20;71.10;;;;;;4817425;29;20050;-68
2021/11/21 00:23:01;;;;;;;1.98;0.90;;;16.20;71.30;;;;;;4822305;29;20046;-68
2021/11/21 00:25:28;;;;;;;2.90;0.90;;;16.20;71.10;;;;;;4817741;29;20053;-68
2021/11/21 00:27:54;;;;;;;1.42;0.73;;;16.20;71.10;;;;;;4823596;29;20217;-69
2021/11/21 00:30:20;;;;;;;1.05;0.70;;;16.20;71.20;;;;;;4809649;29;20145;-68
2021/11/21 00:32:47;;;;;;;1.95;0.80;;;16.20;71.20;;;;;;4826009;29;20042;-68
2021/11/21 00:35:13;;;;;;;2.10;0.70;;;16.20;71.20;;;;;;4826229;29;20057;-68
2021/11/21 00:37:39;;;;;;;2.10;0.73;;;16.20;71.20;;;;;;4809884;29;20129;-68
2021/11/21 00:40:07;;;;;;;2.45;0.82;;;16.20;71.30;;;;;;4825856;29;20436;-68
2021/11/21 00:42:34;;;;;;;3.05;1.08;;;16.20;71.30;;;;;;4826096;29;20370;-67
2021/11/21 00:45:00;;;;;;;2.20;0.75;;;16.20;71.30;;;;;;4826020;29;20046;-69
2021/11/21 00:47:26;;;;;;;1.65;0.70;;;16.20;71.40;;;;;;4825884;29;20080;-69
2021/11/21 00:49:51;;;;;;;2.33;0.70;;;16.20;71.30;;;;;;4825895;29;20078;-68
2021/11/21 00:52:18;;;;;;;1.75;0.82;;;16.20;71.10;;;;;;4794283;29;20538;-69
2021/11/21 00:54:52;;;;;;;2.53;0.70;;;16.20;71.20;;;;;;4825839;29;20047;-69
2021/11/21 00:57:17;;;;;;;1.92;0.70;;;16.20;71.30;;;;;;4824220;29;20462;-68
2021/11/21 00:59:44;;;;;;;2.47;1.00;;;16.20;71.30;;;;;;4825940;29;20054;-68
2021/11/21 01:02:11;;;;;;;1.83;0.73;;;16.30;71.20;;;;;;4825697;29;20058;-68
2021/11/21 01:04:39;;;;;;;2.40;0.90;;;16.30;71.30;;;;;;4809164;29;20070;-68
2021/11/21 01:07:05;;;;;;;2.92;1.17;;;16.30;71.30;;;;;;4825510;29;21395;-69
2021/11/21 01:09:31;;;;;;;2.45;0.77;;;16.30;71.20;;;;;;4823335;29;20055;-69
2021/11/21 01:11:57;;;;;;;2.13;0.88;;;16.30;71.20;;;;;;4825705;29;20054;-68
2021/11/21 01:14:28;;;;;;;3.17;0.93;;;16.30;71.30;;;;;;4825504;29;20469;-69
2021/11/21 01:16:55;;;;;;;3.08;0.77;;;16.30;71.20;;;;;;4807277;29;20062;-68
2021/11/21 01:19:21;;;;;;;2.70;0.85;;;16.30;71.30;;;;;;4825418;29;20038;-68
2021/11/21 01:21:47;;;;;;;2.20;0.60;;;16.30;71.20;;;;;;4809130;29;20051;-68
2021/11/21 01:24:12;;;;;;;1.83;0.52;;;16.30;71.20;;;;;;4825618;29;20116;-70
2021/11/21 01:26:38;;;;;;;1.75;0.70;;;16.30;71.20;;;;;;4825224;29;20536;-68
2021/11/21 01:29:05;;;;;;;2.35;0.73;;;16.30;71.20;;;;;;4825468;29;20519;-68
2021/11/21 01:31:30;;;;;;;1.77;0.50;;;16.30;71.20;;;;;;4822904;29;20430;-69
2021/11/21 01:33:56;;;;;;;1.23;0.60;;;16.30;71.30;;;;;;4809193;29;20051;-70
2021/11/21 01:36:22;;;;;;;2.75;0.57;;;16.30;71.20;;;;;;4825360;29;20050;-68
2021/11/21 01:38:48;;;;;;;1.60;0.65;;;16.30;71.20;;;;;;4825302;29;20503;-68
2021/11/21 01:41:14;;;;;;;1.02;0.52;;;16.20;71.10;;;;;;4812254;29;20055;-69
2021/11/21 01:43:41;;;;;;;1.77;0.52;;;16.20;71.10;;;;;;4828772;29;20072;-69
2021/11/21 01:46:07;;;;;;;2.65;0.45;;;16.20;71.30;;;;;;4828311;29;20050;-69
2021/11/21 01:48:34;;;;;;;1.55;0.50;;;16.20;71.20;;;;;;4828480;29;20130;-69
2021/11/21 01:51:04;;;;;;;3.50;0.90;;;16.20;71.30;;;;;;4812609;29;20054;-68
2021/11/21 01:53:30;;;;;;;2.45;0.60;;;16.20;71.40;;;;;;4835351;29;20058;-69
2021/11/21 01:55:58;;;;;;;2.42;0.60;;;16.20;71.30;;;;;;4828665;29;20441;-69
2021/11/21 01:58:24;;;;;;;2.97;0.70;;;16.20;71.40;;;;;;4828311;29;20119;-69
2021/11/21 02:00:51;;;;;;;1.75;0.73;;;16.20;71.30;;;;;;4828421;29;20167;-69
2021/11/21 02:03:18;;;;;;;1.63;0.52;;;16.20;71.30;;;;;;4828232;29;20056;-68
2021/11/21 02:05:48;;;;;;;3.38;0.52;;;16.20;71.30;;;;;;4828050;29;20062;-69
2021/11/21 02:08:14;;;;;;;3.25;0.60;;;16.20;71.40;;;;;;4825823;29;20061;-68
2021/11/21 02:10:40;;;;;;;1.27;0.50;;;16.20;71.30;;;;;;4828344;29;20070;-69
2021/11/21 02:13:08;;;;;;;2.33;0.47;;;16.20;71.20;;;;;;4811937;29;20062;-68
2021/11/21 02:15:36;;;;;;;3.15;0.50;;;16.20;71.30;;;;;;4812310;29;20058;-69
2021/11/21 02:18:04;;;;;;;1.00;0.40;;;16.20;71.30;;;;;;4811573;29;20050;-69
2021/11/21 02:20:32;;;;;;;1.38;0.50;;;16.20;71.30;;;;;;4828046;29;20050;-69
2021/11/21 02:22:58;;;;;;;1.80;0.45;;;16.20;71.40;;;;;;4828225;29;20054;-68
2021/11/21 02:25:24;;;;;;;2.47;0.60;;;16.10;71.30;;;;;;4827859;29;20482;-69
2021/11/21 02:27:50;;;;;;;3.17;0.40;;;16.20;71.30;;;;;;4827916;29;20138;-68
2021/11/21 02:30:16;;;;;;;4.47;0.85;;;16.20;71.30;;;;;;4827775;29;20050;-68
2021/11/21 02:32:47;;;;;;;3.40;0.50;;;16.10;71.30;;;;;;4827840;29;20046;-69
2021/11/21 02:35:14;;;;;;;1.65;0.40;;;16.20;71.30;;;;;;4825824;29;20046;-69
2021/11/21 02:37:40;;;;;;;2.30;0.40;;;16.10;71.20;;;;;;4827620;29;20070;-69
2021/11/21 02:40:08;;;;;;;2.28;0.50;;;16.10;71.30;;;;;;4827848;29;20069;-68
2021/11/21 02:42:34;;;;;;;2.38;0.40;;;16.10;71.30;;;;;;4827670;29;20056;-69
2021/11/21 02:45:01;;;;;;;3.83;0.43;;;16.10;71.30;;;;;;4811725;29;20125;-68
2021/11/21 02:47:32;;;;;;;3.92;0.50;;;16.10;71.90;;;;;;4827665;29;20416;-68
2021/11/21 02:49:59;;;;;;;2.78;0.50;;;16.10;71.30;;;;;;4827561;29;20439;-69
2021/11/21 02:52:25;;;;;;;2.80;0.60;;;16.10;71.90;;;;;;4826706;29;20046;-68
2021/11/21 02:54:56;;;;;;;2.42;0.75;;;16.10;71.30;;;;;;4827535;29;20129;-69
2021/11/21 02:57:22;;;;;;;3.35;0.60;;;16.10;71.30;;;;;;4827353;29;20050;-69
2021/11/21 02:59:50;;;;;;;2.67;0.47;;;16.10;71.40;;;;;;4827233;29;20123;-68
2021/11/21 03:02:18;;;;;;;1.85;0.60;;;16.10;71.50;;;;;;4827442;29;20061;-68
2021/11/21 03:04:49;;;;;;;1.38;0.68;;;16.10;71.50;;;;;;4827457;29;20138;-69
2021/11/21 03:07:15;;;;;;;1.85;0.60;;;16.00;71.30;;;;;;4825287;29;20054;-68
2021/11/21 03:09:41;;;;;;;2.58;0.50;;;16.10;71.40;;;;;;4818951;29;20115;-69
2021/11/21 03:12:08;;;;;;;1.63;0.47;;;16.00;71.30;;;;;;4827289;29;20042;-68
2021/11/21 03:14:34;;;;;;;1.33;0.30;;;16.00;71.30;;;;;;4827290;29;20060;-69
2021/11/21 03:17:00;;;;;;;2.10;0.50;;;16.00;71.40;;;;;;4811324;29;20066;-69
2021/11/21 03:19:29;;;;;;;2.22;0.50;;;16.00;71.20;;;;;;4811273;29;20138;-69
2021/11/21 03:21:55;;;;;;;1.70;0.38;;;16.00;71.10;;;;;;4825050;29;20050;-69
2021/11/21 03:24:21;;;;;;;3.35;0.40;;;16.00;71.30;;;;;;4827105;29;20091;-68
2021/11/21 03:26:46;;;;;;;2.42;0.45;;;16.00;71.30;;;;;;4826610;29;20062;-68
2021/11/21 03:29:13;;;;;;;2.20;0.52;;;16.10;71.30;;;;;;4827141;29;20050;-68
2021/11/21 03:31:39;;;;;;;2.30;0.30;;;16.10;71.20;;;;;;4810724;29;20095;-69
2021/11/21 03:34:05;;;;;;;2.35;0.38;;;16.10;71.20;;;;;;4826919;29;20086;-69
2021/11/21 03:36:32;;;;;;;2.42;0.45;;;16.10;71.10;;;;;;4810392;29;20054;-68
2021/11/21 03:38:58;;;;;;;2.22;0.57;;;16.10;71.00;;;;;;4810164;29;20378;-70
2021/11/21 03:41:24;;;;;;;2.47;0.63;;;16.10;71.00;;;;;;4826899;29;20061;-69
2021/11/21 03:43:50;;;;;;;1.92;0.68;;;16.10;71.00;;;;;;4826540;29;20049;-69
2021/11/21 03:46:17;;;;;;;2.72;0.50;;;16.10;71.00;;;;;;4810115;29;20054;-69
2021/11/21 03:48:43;;;;;;;2.83;0.38;;;16.10;71.00;;;;;;4827005;29;20065;-68
2021/11/21 03:51:09;;;;;;;3.55;0.63;;;16.10;71.10;;;;;;4826648;29;20121;-68
2021/11/21 03:53:35;;;;;;;2.97;0.60;;;16.10;71.00;;;;;;4810751;29;20061;-68
2021/11/21 03:56:01;;;;;;;3.33;0.60;;;16.10;70.90;;;;;;4810601;29;20050;-68
2021/11/21 03:58:27;;;;;;;2.80;0.35;;;16.10;70.90;;;;;;4795094;29;20065;-69
2021/11/21 04:00:53;;;;;;;3.42;0.60;;;16.10;70.90;;;;;;4826681;29;20378;-69
2021/11/21 04:03:20;;;;;;;2.38;0.50;;;16.10;70.90;;;;;;4826354;29;20138;-67
2021/11/21 04:05:46;;;;;;;3.63;0.70;;;16.00;70.90;;;;;;4826428;29;20062;-69
2021/11/21 04:08:12;;;;;;;3.33;0.57;;;16.10;71.00;;;;;;4826248;29;20050;-68
2021/11/21 04:10:38;;;;;;;2.80;0.55;;;16.10;70.90;;;;;;4826397;29;20126;-68
2021/11/21 04:13:05;;;;;;;2.22;0.57;;;16.10;70.80;;;;;;4826419;29;20424;-69
2021/11/21 04:15:32;;;;;;;3.03;0.55;;;16.10;70.80;;;;;;4810133;29;20089;-68
2021/11/21 04:17:58;;;;;;;4.40;0.93;;;16.10;70.80;;;;;;4826429;29;20424;-70
2021/11/21 04:20:24;;;;;;;2.65;0.70;;;16.10;70.80;;;;;;4826191;29;20081;-68
2021/11/21 04:22:50;;;;;;;3.13;0.70;;;16.10;70.70;;;;;;4810125;29;20471;-68
2021/11/21 04:25:17;;;;;;;4.60;1.00;;;16.10;70.60;;;;;;4826259;29;20121;-69
2021/11/21 04:27:42;;;;;;;5.13;0.80;;;16.10;70.60;;;;;;4795643;29;20150;-68
2021/11/21 04:30:12;;;;;;;4.03;0.50;;;16.00;70.50;;;;;;4807819;29;20122;-68
2021/11/21 04:32:38;;;;;;;2.58;0.80;;;16.00;70.40;;;;;;4791755;29;20143;-67
2021/11/21 04:35:07;;;;;;;4.30;0.75;;;16.00;70.60;;;;;;4807922;29;20051;-69
2021/11/21 04:37:33;;;;;;;3.05;0.80;;;16.00;70.50;;;;;;4805095;29;20047;-69
2021/11/21 04:39:59;;;;;;;3.05;0.77;;;15.90;70.40;;;;;;4807648;29;20126;-68
2021/11/21 04:42:25;;;;;;;4.47;0.75;;;16.00;70.50;;;;;;4807385;29;20477;-69
2021/11/21 04:44:51;;;;;;;3.17;0.98;;;16.00;70.40;;;;;;4807739;29;20067;-70
2021/11/21 04:47:17;;;;;;;2.53;0.50;;;16.00;70.60;;;;;;4807458;29;20438;-69
2021/11/21 04:49:43;;;;;;;3.85;1.17;;;16.00;70.50;;;;;;4807522;29;20053;-69
2021/11/21 04:52:09;;;;;;;5.97;1.00;;;16.00;70.40;;;;;;4806113;29;20048;-68
2021/11/21 04:54:35;;;;;;;4.85;1.05;;;15.90;70.40;;;;;;4806826;29;20058;-67
2021/11/21 04:57:02;;;;;;;3.42;0.77;;;15.90;70.40;;;;;;4807322;29;20383;-67
2021/11/21 04:59:28;;;;;;;5.57;0.82;;;15.90;70.40;;;;;;4808144;29;20101;-69
2021/11/21 05:01:54;;;;;;;4.43;0.55;;;15.90;70.40;;;;;;4792057;29;20086;-69
2021/11/21 05:04:19;;;;;;;4.82;1.20;;;16.00;70.40;;;;;;4807909;29;20104;-68
2021/11/21 05:06:45;;;;;;;4.72;1.10;;;16.00;69.80;;;;;;4807430;29;20127;-71
2021/11/21 05:09:11;;;;;;;6.65;1.48;;;16.10;69.10;;;;;;4807247;29;20524;-68
2021/11/21 05:11:37;;;;;;;4.75;1.13;;;16.10;68.30;;;;;;4807456;29;20065;-71
2021/11/21 05:14:06;;;;;;;7.85;1.02;;;16.10;67.80;;;;;;4807845;29;20466;-69
2021/11/21 05:16:33;;;;;;;7.63;1.40;;;16.10;67.30;;;;;;4812222;29;20046;-71
2021/11/21 05:19:00;;;;;;;4.47;1.15;;;16.10;66.80;;;;;;4793977;29;20466;-72
2021/11/21 05:21:26;;;;;;;6.30;1.17;;;16.10;66.40;;;;;;4812960;29;20447;-69
2021/11/21 05:23:52;;;;;;;8.57;1.77;;;16.20;66.10;;;;;;4814024;29;20051;-71
2021/11/21 05:26:17;;;;;;;9.15;1.90;;;16.20;66.30;;;;;;4815841;29;20502;-75
2021/11/21 05:28:43;;;;;;;10.52;1.55;;;16.10;66.80;;;;;;4831741;29;20085;-72
2021/11/21 05:31:09;;;;;;;7.22;1.60;;;16.10;69.40;;;;;;4813547;29;20138;-71
2021/11/21 05:33:34;;;;;;;9.10;1.58;;;16.20;69.80;;;;;;4831547;29;20166;-70
2021/11/21 05:36:00;;;;;;;4.93;1.20;;;16.20;68.90;;;;;;4831800;29;20366;-69
2021/11/21 05:38:26;;;;;;;5.15;0.90;;;16.40;68.30;;;;;;4832072;29;20422;-74
2021/11/21 05:40:52;;;;;;;6.57;1.20;;;16.60;68.10;;;;;;4831801;29;20051;-74
2021/11/21 05:43:20;;;;;;;7.20;1.35;;;16.80;67.90;;;;;;4816042;29;20424;-74
2021/11/21 05:45:46;;;;;;;6.72;1.27;;;17.00;67.80;;;;;;4831526;29;20058;-78
2021/11/21 05:48:12;;;;;;;4.97;1.20;;;17.10;67.60;;;;;;4831751;29;20478;-72
2021/11/21 05:50:38;;;;;;;5.68;1.13;;;17.30;67.70;;;;;;4815874;29;20399;-74
2021/11/21 05:53:04;;;;;;;6.90;1.42;;;17.40;68.00;;;;;;4815769;29;20131;-76
2021/11/21 05:55:29;;;;;;;14.27;1.83;;;17.40;67.90;;;;;;4831853;29;20050;-74
2021/11/21 05:57:55;;;;;;;7.80;1.85;;;17.40;68.40;;;;;;4831711;29;20054;-74
2021/11/21 06:00:23;;;;;;;6.25;1.20;;;17.50;68.90;;;;;;4814526;29;20111;-77
2021/11/21 06:02:50;;;;;;;12.13;1.25;;;17.50;69.20;;;;;;4832164;29;20042;-72
2021/11/21 06:05:15;;;;;;;6.18;1.30;;;17.50;69.20;;;;;;4831125;29;20451;-73
2021/11/21 06:07:41;;;;;;;5.50;1.02;;;17.60;69.70;;;;;;4814591;29;20125;-75
2021/11/21 06:10:08;;;;;;;8.43;1.45;;;17.60;70.20;;;;;;4831207;29;20058;-74
2021/11/21 06:12:34;;;;;;;8.15;1.58;;;17.60;70.00;;;;;;4815449;29;20445;-73
2021/11/21 06:15:00;;;;;;;9.98;2.05;;;17.60;70.10;;;;;;4814338;29;20126;-74
2021/11/21 06:17:26;;;;;;;7.70;1.08;;;17.60;69.90;;;;;;4815664;29;20115;-75
2021/11/21 06:19:52;;;;;;;7.05;1.20;;;17.70;70.30;;;;;;4831768;29;20101;-72
2021/11/21 06:22:19;;;;;;;5.63;1.17;;;17.70;70.40;;;;;;4831768;29;20066;-73
2021/11/21 06:24:46;;;;;;;5.07;1.02;;;17.80;70.60;;;;;;4800070;29;20055;-73
2021/11/21 06:27:12;;;;;;;8.77;1.50;;;17.80;70.50;;;;;;4812992;29;20141;-73
2021/11/21 06:29:39;;;;;;;10.77;1.80;;;17.90;70.10;;;;;;4828377;29;20058;-75
2021/11/21 06:32:05;;;;;;;12.57;1.55;;;17.40;63.50;;;;;;4813155;29;20050;-77
2021/11/21 06:34:31;;;;;;;7.93;1.25;;;17.70;69.40;;;;;;4828538;29;20061;-74
2021/11/21 06:36:57;;;;;;;5.68;1.02;;;17.80;69.70;;;;;;4812633;29;20054;-76
2021/11/21 06:39:22;;;;;;;9.23;1.73;;;17.90;69.40;;;;;;4812729;29;20058;-74
2021/11/21 06:41:48;;;;;;;20.33;2.70;;;18.00;69.10;;;;;;4812218;29;20459;-76
2021/11/21 06:44:14;;;;;;;9.35;1.33;;;17.80;66.70;;;;;;4806668;29;20134;-72
2021/11/21 06:46:40;;;;;;;6.70;1.50;;;17.70;69.00;;;;;;4828322;29;20054;-72
2021/11/21 06:49:06;;;;;;;7.10;1.58;;;17.80;69.00;;;;;;4828025;29;20130;-75
2021/11/21 06:51:32;;;;;;;6.28;1.35;;;17.80;68.90;;;;;;4827958;29;20055;-71
2021/11/21 06:53:58;;;;;;;6.47;1.40;;;17.90;68.90;;;;;;4828204;29;20440;-73
2021/11/21 06:56:24;;;;;;;6.57;1.33;;;17.90;68.70;;;;;;4828275;29;20053;-72
2021/11/21 06:58:50;;;;;;;5.07;1.30;;;18.00;68.70;;;;;;4811850;29;20488;-73
2021/11/21 07:01:16;;;;;;;5.90;1.00;;;18.10;68.50;;;;;;4827815;29;20050;-72
2021/11/21 07:03:42;;;;;;;8.88;1.60;;;18.20;66.80;;;;;;4828470;29;20057;-71
2021/11/21 07:06:07;;;;;;;10.80;1.38;;;18.30;66.50;;;;;;4810769;29;20469;-72
2021/11/21 07:08:33;;;;;;;9.70;1.77;;;18.40;66.70;;;;;;4826156;29;20062;-73
2021/11/21 07:10:59;;;;;;;7.13;1.33;;;18.40;66.70;;;;;;4827792;29;20050;-72
2021/11/21 07:13:25;;;;;;;5.60;1.25;;;18.50;66.30;;;;;;4826321;29;20057;-73
2021/11/21 07:15:51;;;;;;;6.57;1.20;;;18.60;65.90;;;;;;4827162;29;20059;-73
2021/11/21 07:18:17;;;;;;;7.18;0.95;;;18.60;64.90;;;;;;4827149;29;20058;-73
2021/11/21 07:20:43;;;;;;;7.13;1.35;;;18.60;64.70;;;;;;4825998;29;20062;-72
2021/11/21 07:23:13;;;;;;;8.52;1.15;;;18.70;64.90;;;;;;4826658;29;20058;-72
2021/11/21 07:25:39;;;;;;;6.70;1.15;;;18.70;65.20;;;;;;4827521;29;20050;-70
2021/11/21 07:28:05;;;;;;;7.43;1.50;;;18.70;65.40;;;;;;4827589;29;20054;-71
2021/11/21 07:30:30;;;;;;;7.07;1.33;;;18.70;65.50;;;;;;4826343;29;20093;-70
2021/11/21 07:32:56;;;;;;;12.35;1.92;;;18.70;65.90;;;;;;4827392;29;20352;-72
2021/11/21 07:35:23;;;;;;;8.48;1.08;;;18.30;64.30;;;;;;4796198;29;20062;-70
2021/11/21 07:37:49;;;;;;;6.15;1.23;;;18.20;66.30;;;;;;4826766;29;20098;-71
2021/11/21 07:40:17;;;;;;;6.38;0.98;;;18.40;66.60;;;;;;4811443;29;20086;-70
2021/11/21 07:42:43;;;;;;;5.95;1.10;;;18.40;66.50;;;;;;4827168;29;20082;-73
2021/11/21 07:45:11;;;;;;;7.05;1.67;;;18.50;66.40;;;;;;4827363;29;20126;-72
2021/11/21 07:47:39;;;;;;;8.52;1.60;;;18.60;66.30;;;;;;4827683;29;20125;-71
2021/11/21 07:50:06;;;;;;;7.05;1.23;;;18.70;66.10;;;;;;4826349;29;20123;-71
2021/11/21 07:52:31;;;;;;;9.30;1.58;;;18.70;66.10;;;;;;4827314;29;20050;-75
2021/11/21 07:54:57;;;;;;;8.00;1.25;;;18.70;66.20;;;;;;4811102;29;20058;-76
2021/11/21 07:57:23;;;;;;;5.88;2.00;;;18.70;66.60;;;;;;4827133;29;20145;-75
2021/11/21 07:59:48;;;;;;;9.38;1.77;;;18.70;66.50;;;;;;4811300;29;20439;-74
2021/11/21 08:02:14;;;;;;;6.95;1.50;;;18.70;68.80;;;;;;4810559;29;20057;-75
2021/11/21 08:04:40;;;;;;;6.97;1.15;;;18.60;67.70;;;;;;4810695;29;20108;-74
2021/11/21 08:07:08;;;;;;;11.18;2.08;;;18.60;67.30;;;;;;4827141;29;20058;-73
2021/11/21 08:09:34;;;;;;;7.20;1.80;;;18.10;66.80;;;;;;4811074;29;20090;-74
2021/11/21 08:12:00;;;;;;;11.68;1.60;;;18.10;66.90;;;;;;4810534;29;20141;-73
2021/11/21 08:14:26;;;;;;;5.35;1.20;;;18.10;66.60;;;;;;4810733;29;20121;-73
2021/11/21 08:16:53;;;;;;;6.60;1.30;;;18.10;66.50;;;;;;4810564;29;20119;-74
2021/11/21 08:19:19;;;;;;;4.85;1.10;;;18.00;66.10;;;;;;4826685;29;20367;-73
2021/11/21 08:21:45;;;;;;;5.32;1.00;;;18.00;65.90;;;;;;4827220;29;20063;-76
2021/11/21 08:24:11;;;;;;;9.23;1.67;;;18.00;66.20;;;;;;4826659;29;20101;-73
2021/11/21 08:26:37;;;;;;;7.25;1.40;;;18.00;66.30;;;;;;4826366;29;20066;-72
2021/11/21 08:29:04;;;;;;;8.10;1.50;;;18.00;66.20;;;;;;4826425;29;20058;-74
2021/11/21 08:31:30;;;;;;;6.50;0.90;;;18.00;66.00;;;;;;4825933;29;20050;-73
2021/11/21 08:33:56;;;;;;;6.93;1.42;;;18.00;65.30;;;;;;4809312;29;20058;-77
2021/11/21 08:36:22;;;;;;;9.32;1.73;;;18.00;64.60;;;;;;4810997;29;20122;-76
2021/11/21 08:38:48;;;;;;;5.57;1.42;;;17.90;64.50;;;;;;4826737;29;20071;-76
2021/11/21 08:41:13;;;;;;;7.90;1.27;;;17.90;64.30;;;;;;4826561;29;20405;-75
2021/11/21 08:43:39;;;;;;;5.25;1.30;;;17.80;64.00;;;;;;4810273;29;20069;-77
2021/11/21 08:46:05;;;;;;;7.95;1.45;;;17.70;64.00;;;;;;4826479;29;20386;-76
2021/11/21 08:48:31;;;;;;;4.82;1.50;;;17.70;64.40;;;;;;4826233;29;20050;-77
2021/11/21 08:50:57;;;;;;;6.70;1.83;;;17.70;64.90;;;;;;4825630;29;20086;-77
2021/11/21 08:53:23;;;;;;;8.45;1.38;;;17.60;65.20;;;;;;4810078;29;20474;-74
2021/11/21 08:55:49;;;;;;;5.43;1.15;;;17.60;65.60;;;;;;4826418;29;20134;-75
2021/11/21 08:58:15;;;;;;;7.03;1.60;;;17.60;66.00;;;;;;4795179;29;20065;-74
2021/11/21 09:00:41;;;;;;;6.35;1.08;;;17.50;66.30;;;;;;4825907;29;20046;-75
2021/11/21 09:03:07;;;;;;;7.30;1.65;;;17.50;65.90;;;;;;4809853;29;20474;-75
2021/11/21 09:05:32;;;;;;;5.53;1.20;;;17.50;66.60;;;;;;4826112;29;20115;-74
2021/11/21 09:07:58;;;;;;;4.63;1.17;;;17.40;66.90;;;;;;4826268;29;20475;-75
2021/11/21 09:10:25;;;;;;;6.90;1.02;;;17.50;67.10;;;;;;4810392;29;20061;-76
2021/11/21 09:12:51;;;;;;;4.03;1.20;;;17.50;66.50;;;;;;4823709;29;20407;-73
2021/11/21 09:15:20;;;;;;;10.30;1.25;;;17.40;67.70;;;;;;4825864;29;20137;-73
2021/11/21 09:17:48;;;;;;;8.32;1.40;;;17.50;67.70;;;;;;4826014;29;20051;-76
2021/11/21 09:20:14;;;;;;;26.15;3.53;;;17.60;68.50;;;;;;4826247;29;20536;-71
2021/11/21 09:22:40;;;;;;;11.20;1.65;;;17.60;67.50;;;;;;4824435;29;20142;-71
2021/11/21 09:25:07;;;;;;;12.77;2.15;;;17.50;68.20;;;;;;4825703;29;20125;-73
2021/11/21 09:27:34;;;;;;;11.90;1.70;;;17.60;68.20;;;;;;4812553;29;20461;-72
2021/11/21 09:30:00;;;;;;;10.45;1.80;;;17.70;68.20;;;;;;4791858;29;20066;-71
2021/11/21 09:32:25;;;;;;;12.93;2.00;;;17.80;68.10;;;;;;4807716;29;20138;-69
2021/11/21 09:34:51;;;;;;;12.68;1.65;;;17.90;68.20;;;;;;4807424;29;20168;-73
2021/11/21 09:37:17;;;;;;;18.98;1.92;;;17.90;68.10;;;;;;4791704;29;20055;-72
2021/11/21 09:39:45;;;;;;;11.93;1.25;;;18.00;68.40;;;;;;4792481;29;20456;-72
2021/11/21 09:42:11;;;;;;;21.88;2.25;;;18.00;68.40;;;;;;4791384;29;20054;-74
2021/11/21 09:44:38;;;;;;;13.57;1.92;;;18.00;68.10;;;;;;4791520;29;20402;-73
2021/11/21 09:47:04;;;;;;;13.65;2.08;;;18.00;68.20;;;;;;4807771;29;20055;-73
2021/11/21 09:49:29;;;;;;;13.57;1.90;;;18.00;68.30;;;;;;4792108;29;20094;-73
2021/11/21 09:51:56;;;;;;;15.38;2.70;;;18.00;68.50;;;;;;4792340;29;20478;-73
2021/11/21 09:54:26;;;;;;;14.38;2.67;;;18.00;68.30;;;;;;4791354;29;20094;-72
2021/11/21 09:56:52;;;;;;;14.85;2.08;;;18.10;67.90;;;;;;4807464;29;20058;-74
2021/11/21 09:59:59;;;;;;;14.98;2.45;;;18.20;67.70;;;;;;4791518;29;20055;-73
2021/11/21 10:02:30;;;;;;;16.17;1.42;;;18.10;67.80;;;;;;4810111;29;20058;-74
2021/11/21 10:05:00;;;;;;;14.75;2.03;;;18.20;67.90;;;;;;4790594;29;20353;-73
2021/11/21 10:07:29;;;;;;;14.00;1.63;;;18.20;67.80;;;;;;4810061;29;20050;-73
2021/11/21 10:09:57;;;;;;;12.52;2.10;;;18.30;67.90;;;;;;4794962;29;20525;-75
2021/11/21 10:12:24;;;;;;;9.77;1.90;;;18.30;67.60;;;;;;4810935;29;20059;-75
2021/11/21 10:14:56;;;;;;;17.77;1.95;;;18.30;67.70;;;;;;4794777;29;20414;-74
2021/11/21 10:17:25;;;;;;;9.93;2.03;;;18.40;68.00;;;;;;4810425;29;20051;-73
2021/11/21 10:20:10;;;;;;;16.38;2.72;;;18.40;68.10;;;;;;4810533;29;20062;-75
2021/11/21 10:23:01;;;;;;;16.98;2.72;;;18.40;68.20;;;;;;4809890;29;20054;-74
2021/11/21 10:25:33;;;;;;;16.05;2.55;;;18.40;67.60;;;;;;4810450;29;20344;-74
2021/11/21 10:28:29;;;;;;;18.65;2.33;;;18.50;67.70;;;;;;4810069;29;20169;-73
2021/11/21 10:31:01;;;;;;;20.65;2.47;;;18.50;67.80;;;;;;4820741;29;20537;-80
2021/11/21 10:33:39;;;;;;;30.40;3.67;;;18.50;67.40;;;;;;4827928;29;20379;-74
2021/11/21 10:36:25;;;;;;;24.83;3.03;;;18.50;67.00;;;;;;4828030;29;20336;-78
2021/11/21 10:38:53;;;;;;;18.02;1.98;;;18.60;67.40;;;;;;4812147;29;20126;-76
2021/11/21 10:41:31;;;;;;;22.55;2.92;;;18.60;67.80;;;;;;4828591;29;20125;-79
2021/11/21 10:44:10;;;;;;;20.08;2.88;;;18.70;68.20;;;;;;4828245;29;20088;-73
2021/11/21 10:46:47;;;;;;;17.23;2.53;;;18.70;68.50;;;;;;4828089;29;20141;-76
2021/11/21 10:49:16;;;;;;;17.02;1.98;;;18.70;67.70;;;;;;4811819;29;20050;-77
2021/11/21 10:51:44;;;;;;;16.10;1.92;;;18.60;67.90;;;;;;4814265;29;20057;-70
2021/11/21 10:54:28;;;;;;;16.33;2.70;;;18.60;68.20;;;;;;4806875;29;20352;-72
2021/11/21 10:56:57;;;;;;;16.02;2.05;;;18.60;68.70;;;;;;4827766;29;20050;-73
2021/11/21 10:59:49;;;;;;;14.23;2.75;;;18.50;69.00;;;;;;4827788;29;20462;-72
2021/11/21 11:02:24;;;;;;;21.88;2.58;;;18.50;69.50;;;;;;4812029;29;20050;-72
2021/11/21 11:05:02;;;;;;;13.73;2.28;;;18.50;69.70;;;;;;4812181;29;20054;-73
2021/11/21 11:07:32;;;;;;;26.63;2.97;;;18.50;70.30;;;;;;4827782;29;20065;-72
2021/11/21 11:09:58;;;;;;;18.58;3.28;;;18.50;71.60;;;;;;4812201;29;20375;-73
2021/11/21 11:12:25;;;;;;;28.67;3.58;;;18.40;72.20;;;;;;4811190;29;20050;-74
2021/11/21 11:14:53;;;;;;;32.85;4.28;;;18.40;72.30;;;;;;4827404;29;20058;-75
2021/11/21 11:17:19;;;;;;;21.85;2.70;;;18.40;73.40;;;;;;4827992;29;20058;-76
2021/11/21 11:19:46;;;;;;;24.67;3.60;;;18.40;73.40;;;;;;4828243;29;20098;-74
2021/11/21 11:22:12;;;;;;;24.05;3.67;;;18.30;73.80;;;;;;4827940;29;20050;-77
2021/11/21 11:24:42;;;;;;;29.20;2.72;;;18.30;74.40;;;;;;4827966;29;20124;-77
2021/11/21 11:27:15;;;;;;;26.77;3.13;;;18.30;74.80;;;;;;4827121;29;20065;-75
2021/11/21 11:29:48;;;;;;;16.75;2.85;;;18.30;75.30;;;;;;4827790;29;20065;-78
2021/11/21 11:32:19;;;;;;;18.85;2.88;;;18.30;75.50;;;;;;4827297;29;20054;-76
2021/11/21 11:34:45;;;;;;;18.23;2.53;;;18.20;75.70;;;;;;4827448;29;20054;-76
2021/11/21 11:37:14;;;;;;;20.60;2.38;;;18.20;75.50;;;;;;4827226;29;20053;-76
2021/11/21 11:39:44;;;;;;;16.85;2.42;;;18.20;75.10;;;;;;4827595;29;20054;-75
2021/11/21 11:42:35;;;;;;;20.02;3.50;;;18.20;75.40;;;;;;4824854;29;20057;-76
2021/11/21 11:45:07;;;;;;;16.25;1.80;;;18.20;75.60;;;;;;4817815;29;20058;-76
2021/11/21 11:47:34;;;;;;;12.68;1.83;;;18.10;75.30;;;;;;4811470;29;20058;-77
2021/11/21 11:49:59;;;;;;;10.35;1.88;;;18.10;75.60;;;;;;4811786;29;20427;-72
2021/11/21 11:52:50;;;;;;;21.05;2.42;;;18.10;75.40;;;;;;4827167;29;20125;-78
2021/11/21 11:55:16;;;;;;;16.42;1.92;;;18.10;75.30;;;;;;4825295;29;20054;-75
2021/11/21 11:57:45;;;;;;;12.40;2.10;;;18.10;75.10;;;;;;4827038;29;20110;-77
2021/11/21 12:00:32;;;;;;;17.30;2.28;;;18.00;75.10;;;;;;4827405;29;20355;-76
2021/11/21 12:02:59;;;;;;;27.33;3.38;;;18.00;75.00;;;;;;4810518;29;20126;-77
2021/11/21 12:05:36;;;;;;;30.23;3.72;;;18.00;75.00;;;;;;4826923;29;20061;-76
2021/11/21 12:08:21;;;;;;;27.42;3.17;;;18.00;74.80;;;;;;4827053;29;20050;-74
2021/11/21 12:10:52;;;;;;;17.13;3.15;;;18.00;75.20;;;;;;4810680;29;20066;-78
2021/11/21 12:13:37;;;;;;;21.88;2.35;;;18.00;75.00;;;;;;4827078;29;20053;-77
2021/11/21 12:16:06;;;;;;;23.95;2.88;;;18.00;75.60;;;;;;4826782;29;20092;-73
2021/11/21 12:18:52;;;;;;;21.95;2.30;;;18.00;75.40;;;;;;4826506;29;20462;-72
2021/11/21 12:21:39;;;;;;;20.98;2.53;;;18.00;74.70;;;;;;4826780;29;20056;-75
2021/11/21 12:24:09;;;;;;;24.77;3.63;;;18.00;75.20;;;;;;4826758;29;20054;-77
2021/11/21 12:26:38;;;;;;;19.38;2.97;;;18.00;75.10;;;;;;4826526;29;20066;-76
2021/11/21 12:29:08;;;;;;;22.17;2.45;;;18.00;75.10;;;;;;4827222;29;20058;-76
2021/11/21 12:31:42;;;;;;;23.70;3.00;;;18.00;75.00;;;;;;4826281;29;20053;-76
2021/11/21 12:34:26;;;;;;;17.23;2.22;;;18.00;74.80;;;;;;4826729;29;20062;-77
2021/11/21 12:37:12;;;;;;;18.83;2.90;;;18.00;74.60;;;;;;4826849;29;20058;-76
2021/11/21 12:39:39;;;;;;;15.20;2.20;;;18.00;74.30;;;;;;4827133;29;20046;-74
2021/11/21 12:42:12;;;;;;;20.15;2.50;;;17.90;74.40;;;;;;4826738;29;20362;-76
2021/11/21 12:44:39;;;;;;;17.23;2.10;;;17.90;74.30;;;;;;4826562;29;20412;-77
2021/11/21 12:47:06;;;;;;;19.40;2.30;;;17.90;74.30;;;;;;4810169;29;20470;-75